createdAt,value
2023-05-21T00:32:14.008Z,95862.00
2023-05-21T00:34:31.718Z,95867.47
2023-05-21T00:45:31.051Z,95857.66
2023-05-21T02:47:49.759Z,95831.56
2023-05-21T03:21:30.681Z,95823.44
2023-05-21T04:23:08.213Z,95852.47
2023-05-21T05:10:38.287Z,95903.47
2023-05-21T05:13:19.440Z,95898.72
2023-05-21T05:15:47.554Z,95889.84
2023-05-21T05:46:48.028Z,95904.81
2023-05-21T07:29:11.910Z,95914.63
2023-05-21T13:13:24.064Z,95824.81
2023-05-21T13:15:50.454Z,95829.97
2023-05-21T13:18:16.899Z,95819.34
2023-05-21T13:20:43.378Z,95818.31
2023-05-21T13:23:11.455Z,95816.81
2023-05-21T13:25:38.284Z,95828.91
2023-05-21T13:28:04.650Z,95828.88
2023-05-21T13:30:31.001Z,95821.69
2023-05-21T13:32:57.440Z,95821.97
2023-05-21T13:35:23.856Z,95820.16
2023-05-21T13:37:50.214Z,95822.44
2023-05-21T13:40:16.716Z,95816.00
2023-05-21T13:42:43.209Z,95819.41
2023-05-21T13:45:09.552Z,95818.34
2023-05-21T13:47:37.581Z,95818.84
2023-05-21T13:50:06.406Z,95827.84
2023-05-21T13:52:32.792Z,95827.38
2023-05-21T13:54:59.131Z,95818.59
2023-05-21T13:57:25.503Z,95825.06
2023-05-21T13:59:51.843Z,95819.59
2023-05-21T14:02:18.295Z,95819.09
2023-05-21T14:04:44.709Z,95804.91
2023-05-21T14:07:11.048Z,95814.19
2023-05-21T14:09:37.396Z,95793.75
2023-05-21T14:12:05.606Z,95805.91
2023-05-21T14:14:32.656Z,95802.84
2023-05-21T14:16:59.195Z,95802.31
2023-05-21T14:19:25.908Z,95801.81
2023-05-21T14:21:52.323Z,95792.84
2023-05-21T14:24:18.670Z,95798.69
2023-05-21T14:26:45.043Z,95797.69
2023-05-21T14:29:11.391Z,95806.44
2023-05-21T14:31:38.147Z,95806.97
2023-05-21T14:34:04.574Z,95812.16
2023-05-21T14:36:30.919Z,95802.38
2023-05-21T14:38:57.425Z,95801.81
2023-05-21T14:41:23.877Z,95806.47
2023-05-21T14:43:50.227Z,95801.06
2023-05-21T14:46:16.627Z,95794.81
2023-05-21T14:48:43.109Z,95793.28
2023-05-21T14:51:09.464Z,95791.44
2023-05-21T14:53:35.806Z,95788.66
2023-05-21T14:56:02.167Z,95784.53
2023-05-21T14:58:28.529Z,95791.25
2023-05-21T15:00:54.884Z,95793.06
2023-05-21T15:03:21.374Z,95786.34
2023-05-21T15:05:47.916Z,95788.41
2023-05-21T15:08:14.270Z,95790.22
2023-05-21T15:10:40.629Z,95785.06
2023-05-21T15:13:06.964Z,95787.09
2023-05-21T15:15:33.336Z,95775.72
2023-05-21T15:17:59.732Z,95781.59
2023-05-21T15:20:26.096Z,95769.50
2023-05-21T15:22:56.874Z,95764.69
2023-05-21T15:25:31.397Z,95777.84
2023-05-21T15:27:57.745Z,95770.91
2023-05-21T15:30:24.081Z,95776.81
2023-05-21T15:32:50.436Z,95769.06
2023-05-21T15:35:16.897Z,95776.06
2023-05-21T15:37:43.337Z,95778.91
2023-05-21T15:40:09.717Z,95769.56
2023-05-21T15:42:36.050Z,95773.47
2023-05-21T15:45:02.419Z,95777.34
2023-05-21T15:47:28.858Z,95771.63
2023-05-21T15:49:55.228Z,95786.34
2023-05-21T15:52:21.568Z,95785.63
2023-05-21T15:54:47.934Z,95790.53
2023-05-21T15:57:14.266Z,95780.41
2023-05-21T15:59:40.592Z,95795.66
2023-05-21T16:02:06.944Z,95803.13
2023-05-21T16:04:33.277Z,95793.81
2023-05-21T16:06:59.628Z,95804.66
2023-05-21T16:09:25.992Z,95806.25
2023-05-21T16:11:52.349Z,95809.31
2023-05-21T16:14:18.675Z,95806.78
2023-05-21T16:16:45.074Z,95807.25
2023-05-21T16:19:11.493Z,95804.19
2023-05-21T16:21:37.861Z,95800.56
2023-05-21T16:24:04.235Z,95796.97
2023-05-21T16:26:30.609Z,95795.44
2023-05-21T16:28:56.951Z,95793.56
2023-05-21T16:31:23.381Z,95791.53
2023-05-21T16:33:49.729Z,95799.56
2023-05-21T16:36:17.933Z,95796.97
2023-05-21T16:38:44.413Z,95789.97
2023-05-21T16:41:10.769Z,95791.78
2023-05-21T16:43:37.116Z,95784.09
2023-05-21T16:46:03.521Z,95779.22
2023-05-21T16:48:29.875Z,95779.47
2023-05-21T16:50:56.221Z,95774.81
2023-05-21T16:53:22.596Z,95785.38
2023-05-21T16:55:48.972Z,95791.06
2023-05-21T16:58:15.301Z,95795.63
2023-05-21T17:00:41.697Z,95790.53
2023-05-21T17:03:08.099Z,95792.34
2023-05-21T17:05:34.741Z,95793.63
2023-05-21T17:08:01.293Z,95801.13
2023-05-21T17:10:27.631Z,95804.44
2023-05-21T17:12:53.992Z,95804.94
2023-05-21T17:15:20.372Z,95803.41
2023-05-21T17:17:46.784Z,95799.03
2023-05-21T17:20:13.160Z,95812.19
2023-05-21T17:22:39.565Z,95805.22
2023-05-21T17:25:05.932Z,95797.75
2023-05-21T17:27:32.267Z,95801.66
2023-05-21T17:29:58.622Z,95808.09
2023-05-21T17:32:24.956Z,95797.00
2023-05-21T17:34:51.363Z,95797.50
2023-05-21T17:37:17.842Z,95801.88
2023-05-21T17:39:44.179Z,95805.00
2023-05-21T17:42:10.520Z,95809.13
2023-05-21T17:44:36.902Z,95817.34
2023-05-21T17:47:03.335Z,95812.97
2023-05-21T17:49:29.781Z,95824.06
2023-05-21T17:51:56.139Z,95818.91
2023-05-21T17:54:22.495Z,95825.09
2023-05-21T17:56:48.843Z,95825.59
2023-05-21T17:59:15.207Z,95828.13
2023-05-21T18:01:41.546Z,95833.78
2023-05-21T18:04:07.950Z,95835.88
2023-05-21T18:06:34.340Z,95826.09
2023-05-21T18:09:00.708Z,95829.94
2023-05-21T18:11:27.063Z,95835.34
2023-05-21T18:13:53.436Z,95826.06
2023-05-21T18:16:19.799Z,95830.19
2023-05-21T18:18:46.184Z,95826.06
2023-05-21T18:21:12.585Z,95825.25
2023-05-21T18:23:38.931Z,95829.16
2023-05-21T18:26:05.273Z,95833.78
2023-05-21T18:28:31.633Z,95845.41
2023-05-21T18:30:57.981Z,95834.06
2023-05-21T18:33:24.315Z,95854.66
2023-05-21T18:35:50.697Z,95843.56
2023-05-21T18:38:17.047Z,95849.75
2023-05-21T18:40:43.402Z,95857.22
2023-05-21T18:43:09.842Z,95859.78
2023-05-21T18:45:36.206Z,95868.56
2023-05-21T18:48:02.588Z,95878.53
2023-05-21T18:50:29.041Z,95876.78
2023-05-21T18:52:55.380Z,95875.69
2023-05-21T18:55:21.730Z,95880.06
2023-05-21T18:57:48.098Z,95894.50
2023-05-21T19:00:14.464Z,95900.06
2023-05-21T19:02:40.918Z,95905.47
2023-05-21T19:05:07.421Z,95912.03
2023-05-21T19:07:33.830Z,95926.09
2023-05-21T19:10:00.391Z,95933.78
2023-05-21T19:12:26.812Z,95929.09
2023-05-21T19:14:53.135Z,95937.91
2023-05-21T19:17:19.495Z,95940.41
2023-05-21T19:19:45.882Z,95943.03
2023-05-21T19:22:12.222Z,95959.22
2023-05-21T19:24:38.561Z,95967.50
2023-05-21T19:27:04.901Z,96003.78
2023-05-21T19:29:31.245Z,96021.72
2023-05-21T19:31:57.582Z,96050.38
2023-05-21T19:34:24.123Z,96066.31
2023-05-21T19:36:53.739Z,96089.00
2023-05-21T19:39:20.486Z,96099.34
2023-05-21T19:41:46.863Z,96108.00
2023-05-21T19:44:13.221Z,96106.41
2023-05-21T19:46:39.572Z,96085.78
2023-05-21T19:49:05.958Z,96065.13
2023-05-21T19:51:32.324Z,96061.81
2023-05-21T19:53:58.662Z,96063.78
2023-05-21T19:56:25.013Z,96043.75
2023-05-21T19:58:51.360Z,96037.63
2023-05-21T20:01:17.750Z,96033.66
2023-05-21T20:03:44.197Z,96035.97
2023-05-21T20:06:10.533Z,96037.44
2023-05-21T20:08:36.861Z,96039.28
2023-05-21T20:11:03.219Z,96028.00
2023-05-21T20:13:29.575Z,96023.47
2023-05-21T20:15:55.911Z,96037.41
2023-05-21T20:18:22.556Z,96035.94
2023-05-21T20:20:48.914Z,96034.03
2023-05-21T20:23:15.255Z,96045.78
2023-05-21T20:25:41.616Z,96045.72
2023-05-21T20:28:07.966Z,96042.56
2023-05-21T20:30:34.330Z,96040.78
2023-05-21T20:33:00.771Z,96042.63
2023-05-21T20:35:27.154Z,96049.72
2023-05-21T20:37:53.498Z,96051.25
2023-05-21T20:40:19.873Z,96052.19
2023-05-21T20:42:46.241Z,96051.28
2023-05-21T20:45:12.589Z,96044.50
2023-05-21T20:47:38.989Z,96044.31
2023-05-21T20:50:05.385Z,96041.19
2023-05-21T20:52:31.732Z,96036.94
2023-05-21T20:54:58.123Z,96038.78
2023-05-21T20:57:24.478Z,96036.75
2023-05-21T20:59:50.814Z,96035.84
2023-05-21T21:02:17.175Z,96029.28
2023-05-21T21:04:43.517Z,96042.56
2023-05-21T21:07:09.866Z,96038.53
2023-05-21T21:09:36.220Z,96036.25
2023-05-21T21:12:11.355Z,96033.81
2023-05-21T21:14:48.501Z,96031.50
2023-05-21T21:17:14.900Z,96033.28
2023-05-21T21:19:41.247Z,96039.69
2023-05-21T21:22:07.620Z,96041.72
2023-05-21T21:24:33.967Z,96042.78
2023-05-21T21:27:00.294Z,96049.19
2023-05-21T21:29:26.725Z,96048.59
2023-05-21T21:31:53.042Z,96054.53
2023-05-21T21:34:19.364Z,96050.94
2023-05-21T21:36:45.719Z,96065.78
2023-05-21T21:39:12.048Z,96077.81
2023-05-21T21:41:38.383Z,96078.72
2023-05-21T21:44:04.799Z,96072.91
2023-05-21T21:46:31.172Z,96078.69
2023-05-21T21:48:57.549Z,96077.69
2023-05-21T21:51:23.929Z,96082.56
2023-05-21T21:53:50.279Z,96085.25
2023-05-21T21:56:16.623Z,96077.66
2023-05-21T21:58:43.307Z,96075.94
2023-05-21T22:01:09.685Z,96076.72
2023-05-21T22:03:36.068Z,96074.22
2023-05-21T22:06:02.447Z,96076.34
2023-05-21T22:08:28.803Z,96084.66
2023-05-21T22:10:55.152Z,96088.19
2023-05-21T22:13:21.525Z,96086.97
2023-05-21T22:15:47.865Z,96095.47
2023-05-21T22:18:15.682Z,96092.25
2023-05-21T22:20:44.887Z,96103.72
2023-05-21T22:23:11.236Z,96107.28
2023-05-21T22:25:37.565Z,96113.31
2023-05-21T22:28:03.948Z,96113.88
2023-05-21T22:30:30.308Z,96128.38
2023-05-21T22:32:56.695Z,96117.06
2023-05-21T22:35:23.101Z,96117.84
2023-05-21T22:37:49.442Z,96118.81
2023-05-21T22:40:15.804Z,96120.25
2023-05-21T22:42:42.156Z,96122.47
2023-05-21T22:45:08.501Z,96126.94
2023-05-21T22:47:34.836Z,96129.13
2023-05-21T22:50:01.224Z,96130.00
2023-05-21T22:52:27.603Z,96131.03
2023-05-21T22:54:53.984Z,96128.63
2023-05-21T22:57:20.386Z,96124.78
2023-05-21T22:59:46.749Z,96123.13
2023-05-21T23:02:13.233Z,96124.06
2023-05-21T23:04:44.385Z,96119.13
2023-05-21T23:07:11.105Z,96122.94
2023-05-21T23:09:37.451Z,96116.97
2023-05-21T23:12:03.834Z,96128.91
2023-05-21T23:14:30.168Z,96120.22
2023-05-21T23:16:56.498Z,96121.63
2023-05-21T23:19:22.964Z,96125.84
2023-05-21T23:21:49.419Z,96125.69
2023-05-21T23:24:15.760Z,96120.53
2023-05-21T23:26:42.127Z,96119.22
2023-05-21T23:29:08.460Z,96122.94
2023-05-21T23:31:34.835Z,96119.66
2023-05-21T23:34:01.195Z,96118.03
2023-05-21T23:36:27.536Z,96118.09
2023-05-21T23:38:53.881Z,96118.16
2023-05-21T23:41:20.236Z,96126.47
2023-05-21T23:43:46.590Z,96117.13
2023-05-21T23:46:12.947Z,96117.13
2023-05-21T23:48:39.371Z,96113.19
2023-05-21T23:51:05.721Z,96111.34
2023-05-21T23:53:32.052Z,96111.97
2023-05-21T23:55:58.397Z,96105.09
2023-05-21T23:58:24.734Z,96103.19
